Summary for RAINWISE1

Rainwise Factory, Bar Harbor, ME 04609
Join the PWSweather.com Network
View data in metric units
Latest Conditions
Updated 3:25:00 AM EDT Saturday, Aug 23, 2014
Data Currently Today's Max Today's Min Today's Average
Temperature 60.4°F15.8°C 61.6°F16.4°C 60.4°F15.8°C 60.7°F15.9°C
Dew Point 59.3°F15.2°C 60.5°F15.8°C 59.3°F15.2°C 59.8°F15.4°C
Winds 0.3 mph NNW0.5 kmh NNW 1.8 mph NNW2.9 kmh NNW CalmCalm 0.8 mph1.3 kmh
Wind Gusts 2.6 mph4.2 kmh 3.0 mph4.8 kmh -- 1.8 mph2.9 kmh
Humidity 97% 98% 97% 97%
Pressure 30.20 in1022.7 mb 30.21 in1023.0 mb 30.20 in1022.7 mb 30.20 in1022.7 mb
Precipitation 0.00 in0.0 mm - - 0.00 in0.0 mm
Trends
 
Station Profile
Rainwise FactoryBar Harbor, ME 04609

Lat: 44.39, Lon: -68.208
Elevation: 29
Station Type: Rainwise MK-III

Detailed Summary for Sat, Aug 23, 2014
Hour (EDT) Temperature Dew Point Humidity Winds Wind Gusts Pressure Precip Precip Rate Daily Precip Total
03:25 AM 60.4°F15.8°C 59.3°F15.2°C 97% 0.3 mph NNW0.5 kmh NNW 2.6 mph4.2 kmh 30.20 in1022.7 mb 0.00 in0.0 mm 0.00 in/hr0.0 mm/hr 0.00 in0.0 mm
03:20 AM 60.5°F15.8°C 59.4°F15.2°C 97% 0.2 mph NNW0.3 kmh NNW 1.6 mph2.6 kmh 30.20 in1022.7 mb 0.00 in0.0 mm 0.00 in/hr0.0 mm/hr 0.00 in0.0 mm
03:15 AM 60.6°F15.9°C 59.5°F15.3°C 97% 0.2 mph NNW0.3 kmh NNW 1.3 mph2.1 kmh 30.20 in1022.7 mb 0.00 in0.0 mm 0.00 in/hr0.0 mm/hr 0.00 in0.0 mm
03:10 AM 60.6°F15.9°C 59.5°F15.3°C 97% 0.4 mph NNW0.6 kmh NNW 2.1 mph3.4 kmh 30.20 in1022.7 mb 0.00 in0.0 mm 0.00 in/hr0.0 mm/hr 0.00 in0.0 mm
03:05 AM 60.7°F15.9°C 59.6°F15.3°C 97% 0.1 mph NNW0.2 kmh NNW 1.3 mph2.1 kmh 30.20 in1022.7 mb 0.00 in0.0 mm 0.00 in/hr0.0 mm/hr 0.00 in0.0 mm
03:00 AM 60.7°F15.9°C 59.6°F15.3°C 97% 0.7 mph NNW1.1 kmh NNW 2.6 mph4.2 kmh 30.20 in1022.7 mb 0.00 in0.0 mm 0.00 in/hr0.0 mm/hr 0.00 in0.0 mm
02:55 AM 60.7°F15.9°C 59.6°F15.3°C 97% 0.7 mph NNW1.1 kmh NNW 2.1 mph3.4 kmh 30.20 in1022.7 mb 0.00 in0.0 mm 0.00 in/hr0.0 mm/hr 0.00 in0.0 mm
02:50 AM 60.7°F15.9°C 59.6°F15.3°C 97% 1.4 mph NNW2.3 kmh NNW 2.6 mph4.2 kmh 30.20 in1022.7 mb 0.00 in0.0 mm 0.00 in/hr0.0 mm/hr 0.00 in0.0 mm
02:45 AM 60.7°F15.9°C 59.6°F15.3°C 97% 1.2 mph NNW1.9 kmh NNW 2.6 mph4.2 kmh 30.20 in1022.7 mb 0.00 in0.0 mm 0.00 in/hr0.0 mm/hr 0.00 in0.0 mm
02:40 AM 60.7°F15.9°C 59.6°F15.3°C 97% 0.9 mph NNE1.4 kmh NNE 2.6 mph4.2 kmh 30.20 in1022.7 mb 0.00 in0.0 mm 0.00 in/hr0.0 mm/hr 0.00 in0.0 mm
02:35 AM 60.7°F15.9°C 59.6°F15.3°C 97% 1.2 mph NNW1.9 kmh NNW 2.1 mph3.4 kmh 30.20 in1022.7 mb 0.00 in0.0 mm 0.00 in/hr0.0 mm/hr 0.00 in0.0 mm
02:30 AM 60.7°F15.9°C 59.6°F15.3°C 97% 1.7 mph NNW2.7 kmh NNW 2.6 mph4.2 kmh 30.20 in1022.7 mb 0.00 in0.0 mm 0.00 in/hr0.0 mm/hr 0.00 in0.0 mm
02:25 AM 60.7°F15.9°C 59.6°F15.3°C 97% 1.5 mph NNW2.4 kmh NNW 2.6 mph4.2 kmh 30.20 in1022.7 mb 0.00 in0.0 mm 0.00 in/hr0.0 mm/hr 0.00 in0.0 mm
02:20 AM 60.6°F15.9°C 59.5°F15.3°C 97% 1.4 mph NNW2.3 kmh NNW 2.2 mph3.5 kmh 30.20 in1022.7 mb 0.00 in0.0 mm 0.00 in/hr0.0 mm/hr 0.00 in0.0 mm
02:15 AM 60.7°F15.9°C 59.9°F15.5°C 98% 1.1 mph NNW1.8 kmh NNW 1.8 mph2.9 kmh 30.20 in1022.7 mb 0.00 in0.0 mm 0.00 in/hr0.0 mm/hr 0.00 in0.0 mm
02:10 AM 60.7°F15.9°C 60.0°F15.6°C 98% 0.9 mph NNW1.4 kmh NNW 1.8 mph2.9 kmh 30.20 in1022.7 mb 0.00 in0.0 mm 0.00 in/hr0.0 mm/hr 0.00 in0.0 mm
02:05 AM 60.7°F15.9°C 59.9°F15.5°C 98% 0.9 mph NNW1.4 kmh NNW 1.8 mph2.9 kmh 30.20 in1022.7 mb 0.00 in0.0 mm 0.00 in/hr0.0 mm/hr 0.00 in0.0 mm
02:00 AM 60.6°F15.9°C 59.9°F15.5°C 98% 0.8 mph NNW1.3 kmh NNW 1.6 mph2.6 kmh 30.20 in1022.7 mb 0.00 in0.0 mm 0.00 in/hr0.0 mm/hr 0.00 in0.0 mm
01:55 AM 60.6°F15.9°C 59.9°F15.5°C 98% 1.4 mph NNW2.3 kmh NNW 2.6 mph4.2 kmh 30.20 in1022.7 mb 0.00 in0.0 mm 0.00 in/hr0.0 mm/hr 0.00 in0.0 mm
01:50 AM 60.6°F15.9°C 59.9°F15.5°C 98% 1.3 mph N2.1 kmh N 2.6 mph4.2 kmh 30.20 in1022.7 mb 0.00 in0.0 mm 0.00 in/hr0.0 mm/hr 0.00 in0.0 mm
01:45 AM 60.6°F15.9°C 59.8°F15.4°C 98% 0.7 mph NNW1.1 kmh NNW 1.8 mph2.9 kmh 30.20 in1022.7 mb 0.00 in0.0 mm 0.00 in/hr0.0 mm/hr 0.00 in0.0 mm
01:40 AM 60.5°F15.8°C 59.7°F15.4°C 98% 1.8 mph NNW2.9 kmh NNW 2.2 mph3.5 kmh 30.20 in1022.7 mb 0.00 in0.0 mm 0.00 in/hr0.0 mm/hr 0.00 in0.0 mm
01:35 AM 60.4°F15.8°C 59.7°F15.4°C 98% 1.7 mph NNW2.7 kmh NNW 3.0 mph4.8 kmh 30.20 in1022.7 mb 0.00 in0.0 mm 0.00 in/hr0.0 mm/hr 0.00 in0.0 mm
01:30 AM 60.4°F15.8°C 59.7°F15.4°C 98% 0.9 mph NNW1.4 kmh NNW 1.8 mph2.9 kmh 30.20 in1022.7 mb 0.00 in0.0 mm 0.00 in/hr0.0 mm/hr 0.00 in0.0 mm
01:25 AM 60.4°F15.8°C 59.7°F15.4°C 98% 1.0 mph NNW1.6 kmh NNW 1.6 mph2.6 kmh 30.20 in1022.7 mb 0.00 in0.0 mm 0.00 in/hr0.0 mm/hr 0.00 in0.0 mm
01:20 AM 60.4°F15.8°C 59.7°F15.4°C 98% 1.2 mph NNW1.9 kmh NNW 2.1 mph3.4 kmh 30.21 in1023.0 mb 0.00 in0.0 mm 0.00 in/hr0.0 mm/hr 0.00 in0.0 mm
01:15 AM 60.4°F15.8°C 59.7°F15.4°C 98% 0.5 mph NNW0.8 kmh NNW 1.6 mph2.6 kmh 30.21 in1023.0 mb 0.00 in0.0 mm 0.00 in/hr0.0 mm/hr 0.00 in0.0 mm
01:10 AM 60.4°F15.8°C 59.7°F15.4°C 98% 0.8 mph NNW1.3 kmh NNW 1.8 mph2.9 kmh 30.21 in1023.0 mb 0.00 in0.0 mm 0.00 in/hr0.0 mm/hr 0.00 in0.0 mm
01:05 AM 60.4°F15.8°C 59.7°F15.4°C 98% 0.5 mph NNW0.8 kmh NNW 1.8 mph2.9 kmh 30.21 in1023.0 mb 0.00 in0.0 mm 0.00 in/hr0.0 mm/hr 0.00 in0.0 mm
01:00 AM 60.4°F15.8°C 59.7°F15.4°C 98% 0.1 mph NNW0.2 kmh NNW 1.3 mph2.1 kmh 30.21 in1023.0 mb 0.00 in0.0 mm 0.00 in/hr0.0 mm/hr 0.00 in0.0 mm
12:55 AM 60.6°F15.9°C 59.8°F15.4°C 98% 0.2 mph NNW0.3 kmh NNW 1.6 mph2.6 kmh 30.21 in1023.0 mb 0.00 in0.0 mm 0.00 in/hr0.0 mm/hr 0.00 in0.0 mm
12:50 AM 60.7°F15.9°C 59.6°F15.3°C 97% Calm Calm -- 30.21 in1023.0 mb 0.00 in0.0 mm 0.00 in/hr0.0 mm/hr 0.00 in0.0 mm
12:45 AM 60.7°F15.9°C 59.6°F15.3°C 97% Calm Calm -- 30.21 in1023.0 mb 0.00 in0.0 mm 0.00 in/hr0.0 mm/hr 0.00 in0.0 mm
12:40 AM 60.9°F16.1°C 59.8°F15.4°C 97% Calm Calm -- 30.21 in1023.0 mb 0.00 in0.0 mm 0.00 in/hr0.0 mm/hr 0.00 in0.0 mm
12:35 AM 61.1°F16.2°C 60.0°F15.6°C 97% Calm Calm -- 30.21 in1023.0 mb 0.00 in0.0 mm 0.00 in/hr0.0 mm/hr 0.00 in0.0 mm
12:30 AM 61.1°F16.2°C 60.0°F15.6°C 97% 0.6 mph NNW1.0 kmh NNW 1.3 mph2.1 kmh 30.21 in1023.0 mb 0.00 in0.0 mm 0.00 in/hr0.0 mm/hr 0.00 in0.0 mm
12:25 AM 61.1°F16.2°C 60.0°F15.6°C 97% 1.6 mph NNW2.6 kmh NNW 2.7 mph4.3 kmh 30.21 in1023.0 mb 0.00 in0.0 mm 0.00 in/hr0.0 mm/hr 0.00 in0.0 mm
12:20 AM 61.2°F16.2°C 60.1°F15.6°C 97% 1.0 mph NNW1.6 kmh NNW 1.8 mph2.9 kmh 30.21 in1023.0 mb 0.00 in0.0 mm 0.00 in/hr0.0 mm/hr 0.00 in0.0 mm
12:15 AM 61.2°F16.2°C 60.1°F15.6°C 97% 1.0 mph NNW1.6 kmh NNW 2.1 mph3.4 kmh 30.21 in1023.0 mb 0.00 in0.0 mm 0.00 in/hr0.0 mm/hr 0.00 in0.0 mm
12:10 AM 61.4°F16.3°C 60.3°F15.7°C 97% 0.1 mph NNW0.2 kmh NNW 1.1 mph1.8 kmh 30.21 in1023.0 mb 0.00 in0.0 mm 0.00 in/hr0.0 mm/hr 0.00 in0.0 mm
12:05 AM 61.5°F16.4°C 60.4°F15.8°C 97% 0.2 mph NNW0.3 kmh NNW 1.3 mph2.1 kmh 30.21 in1023.0 mb 0.00 in0.0 mm 0.00 in/hr0.0 mm/hr 0.00 in0.0 mm
12:00 AM 61.6°F16.4°C 60.5°F15.8°C 97% 1.0 mph NNW1.6 kmh NNW 1.6 mph2.6 kmh 30.21 in1023.0 mb 0.00 in0.0 mm 0.00 in/hr0.0 mm/hr 0.01 in0.3 mm
WeatherForYou.com, LLC is not responsible for any damages or problems caused by this service. Current weather conditions are obtained from the closest station including government and personal stations which may have varying degrees of accuracy. Weather forecasts are derived from the NOAA NDFD and obtained through HAMweather's Aeris Weather API. Like all things, this site belongs to Jesus Christ... He just trusts me to maintain it. If you have any questions or comments email webmaster@weatherforyou.com

Copyright © 2014, WeatherForYou.com LLC. All rights reserved.